sensor_id;sensor_type;location;lat;lon;timestamp;temperature;humidity
24426;DHT22;12611;44.446;26.000;2022-12-17T00:00:47;10.10;98.40
24426;DHT22;12611;44.446;26.000;2022-12-17T00:03:35;10.10;98.30
24426;DHT22;12611;44.446;26.000;2022-12-17T00:06:22;10.10;98.20
24426;DHT22;12611;44.446;26.000;2022-12-17T00:09:08;10.10;98.10
24426;DHT22;12611;44.446;26.000;2022-12-17T00:11:54;10.10;98.10
24426;DHT22;12611;44.446;26.000;2022-12-17T00:14:39;10.10;98.00
24426;DHT22;12611;44.446;26.000;2022-12-17T00:17:25;10.20;98.00
24426;DHT22;12611;44.446;26.000;2022-12-17T00:20:24;10.10;97.90
24426;DHT22;12611;44.446;26.000;2022-12-17T00:23:09;10.10;97.90
24426;DHT22;12611;44.446;26.000;2022-12-17T00:25:55;10.10;97.90
24426;DHT22;12611;44.446;26.000;2022-12-17T00:28:41;10.20;97.90
24426;DHT22;12611;44.446;26.000;2022-12-17T00:31:28;10.20;98.00
24426;DHT22;12611;44.446;26.000;2022-12-17T00:34:14;10.20;98.00
24426;DHT22;12611;44.446;26.000;2022-12-17T00:36:59;10.20;98.00
24426;DHT22;12611;44.446;26.000;2022-12-17T00:39:44;10.20;97.90
24426;DHT22;12611;44.446;26.000;2022-12-17T00:42:30;10.20;97.80
24426;DHT22;12611;44.446;26.000;2022-12-17T00:45:16;10.20;98.00
24426;DHT22;12611;44.446;26.000;2022-12-17T00:48:01;10.20;97.80
24426;DHT22;12611;44.446;26.000;2022-12-17T00:50:47;10.20;97.70
24426;DHT22;12611;44.446;26.000;2022-12-17T00:53:34;10.20;97.60
24426;DHT22;12611;44.446;26.000;2022-12-17T00:56:20;10.10;97.40
24426;DHT22;12611;44.446;26.000;2022-12-17T00:59:06;10.10;97.40
24426;DHT22;12611;44.446;26.000;2022-12-17T01:01:52;10.10;97.30
24426;DHT22;12611;44.446;26.000;2022-12-17T01:04:38;10.10;97.20
24426;DHT22;12611;44.446;26.000;2022-12-17T01:07:23;10.10;97.20
24426;DHT22;12611;44.446;26.000;2022-12-17T01:10:10;10.00;97.10
24426;DHT22;12611;44.446;26.000;2022-12-17T01:12:56;10.00;97.10
24426;DHT22;12611;44.446;26.000;2022-12-17T01:15:41;10.00;97.10
24426;DHT22;12611;44.446;26.000;2022-12-17T01:18:26;10.00;97.10
24426;DHT22;12611;44.446;26.000;2022-12-17T01:21:11;9.90;97.00
24426;DHT22;12611;44.446;26.000;2022-12-17T01:23:57;9.90;97.00
24426;DHT22;12611;44.446;26.000;2022-12-17T01:26:45;9.80;96.90
24426;DHT22;12611;44.446;26.000;2022-12-17T01:29:30;9.80;97.00
24426;DHT22;12611;44.446;26.000;2022-12-17T01:32:16;9.80;97.00
24426;DHT22;12611;44.446;26.000;2022-12-17T01:35:02;9.70;97.00
24426;DHT22;12611;44.446;26.000;2022-12-17T01:37:48;9.70;97.00
24426;DHT22;12611;44.446;26.000;2022-12-17T01:40:33;9.70;97.00
24426;DHT22;12611;44.446;26.000;2022-12-17T01:43:35;9.60;97.10
24426;DHT22;12611;44.446;26.000;2022-12-17T01:46:21;9.50;97.10
24426;DHT22;12611;44.446;26.000;2022-12-17T01:49:08;9.50;97.60
24426;DHT22;12611;44.446;26.000;2022-12-17T01:51:55;9.40;97.30
24426;DHT22;12611;44.446;26.000;2022-12-17T01:54:44;9.40;97.20
24426;DHT22;12611;44.446;26.000;2022-12-17T01:57:30;9.40;97.20
24426;DHT22;12611;44.446;26.000;2022-12-17T02:00:18;9.30;97.20
24426;DHT22;12611;44.446;26.000;2022-12-17T02:03:04;9.30;97.40
24426;DHT22;12611;44.446;26.000;2022-12-17T02:06:00;9.20;97.50
24426;DHT22;12611;44.446;26.000;2022-12-17T02:08:52;9.10;97.60
24426;DHT22;12611;44.446;26.000;2022-12-17T02:11:46;9.10;97.60
24426;DHT22;12611;44.446;26.000;2022-12-17T02:14:40;9.10;97.70
24426;DHT22;12611;44.446;26.000;2022-12-17T02:17:33;9.00;97.70
24426;DHT22;12611;44.446;26.000;2022-12-17T02:20:27;8.90;97.70
24426;DHT22;12611;44.446;26.000;2022-12-17T02:23:24;8.80;97.80
24426;DHT22;12611;44.446;26.000;2022-12-17T02:26:16;8.80;97.90
24426;DHT22;12611;44.446;26.000;2022-12-17T02:29:05;8.80;97.90
24426;DHT22;12611;44.446;26.000;2022-12-17T02:31:53;8.70;98.00
24426;DHT22;12611;44.446;26.000;2022-12-17T02:34:43;8.80;98.10
24426;DHT22;12611;44.446;26.000;2022-12-17T02:37:29;8.80;98.10
24426;DHT22;12611;44.446;26.000;2022-12-17T02:40:15;8.80;98.20
24426;DHT22;12611;44.446;26.000;2022-12-17T02:43:12;8.70;98.30
24426;DHT22;12611;44.446;26.000;2022-12-17T02:45:59;8.70;98.30
24426;DHT22;12611;44.446;26.000;2022-12-17T02:48:45;8.70;98.20
24426;DHT22;12611;44.446;26.000;2022-12-17T02:51:31;8.70;98.30
24426;DHT22;12611;44.446;26.000;2022-12-17T02:54:18;8.80;98.90
24426;DHT22;12611;44.446;26.000;2022-12-17T02:57:03;8.80;98.40
24426;DHT22;12611;44.446;26.000;2022-12-17T02:59:57;8.80;98.30
24426;DHT22;12611;44.446;26.000;2022-12-17T03:02:44;8.90;98.30
24426;DHT22;12611;44.446;26.000;2022-12-17T03:05:30;8.90;98.20
24426;DHT22;12611;44.446;26.000;2022-12-17T03:08:15;8.90;98.10
24426;DHT22;12611;44.446;26.000;2022-12-17T03:11:01;8.90;98.00
24426;DHT22;12611;44.446;26.000;2022-12-17T03:13:47;8.90;98.00
24426;DHT22;12611;44.446;26.000;2022-12-17T03:16:29;8.90;97.90
24426;DHT22;12611;44.446;26.000;2022-12-17T03:19:19;8.90;97.80
24426;DHT22;12611;44.446;26.000;2022-12-17T03:22:05;8.90;97.70
24426;DHT22;12611;44.446;26.000;2022-12-17T03:24:50;8.90;97.60
24426;DHT22;12611;44.446;26.000;2022-12-17T03:27:36;8.90;97.60
24426;DHT22;12611;44.446;26.000;2022-12-17T03:30:22;8.90;97.60
24426;DHT22;12611;44.446;26.000;2022-12-17T03:33:14;8.80;97.50
24426;DHT22;12611;44.446;26.000;2022-12-17T03:36:02;8.80;97.50
24426;DHT22;12611;44.446;26.000;2022-12-17T03:38:48;8.80;97.50
24426;DHT22;12611;44.446;26.000;2022-12-17T03:41:34;8.80;97.50
24426;DHT22;12611;44.446;26.000;2022-12-17T03:44:20;8.80;97.60
24426;DHT22;12611;44.446;26.000;2022-12-17T03:47:05;8.80;97.60
24426;DHT22;12611;44.446;26.000;2022-12-17T03:49:51;8.80;97.60
24426;DHT22;12611;44.446;26.000;2022-12-17T03:52:38;8.90;97.60
24426;DHT22;12611;44.446;26.000;2022-12-17T03:55:23;8.90;97.60
24426;DHT22;12611;44.446;26.000;2022-12-17T03:58:09;8.90;97.40
24426;DHT22;12611;44.446;26.000;2022-12-17T04:00:54;8.80;97.30
24426;DHT22;12611;44.446;26.000;2022-12-17T04:03:40;8.80;97.30
24426;DHT22;12611;44.446;26.000;2022-12-17T04:06:26;8.80;97.40
24426;DHT22;12611;44.446;26.000;2022-12-17T04:09:13;8.80;97.40
24426;DHT22;12611;44.446;26.000;2022-12-17T04:11:59;8.80;97.40
24426;DHT22;12611;44.446;26.000;2022-12-17T04:14:45;8.80;97.40
24426;DHT22;12611;44.446;26.000;2022-12-17T04:17:30;8.80;97.40
24426;DHT22;12611;44.446;26.000;2022-12-17T04:20:16;8.90;97.40
24426;DHT22;12611;44.446;26.000;2022-12-17T04:23:02;8.90;97.40
24426;DHT22;12611;44.446;26.000;2022-12-17T04:25:49;8.80;97.30
24426;DHT22;12611;44.446;26.000;2022-12-17T04:28:35;8.80;97.30
24426;DHT22;12611;44.446;26.000;2022-12-17T04:31:21;8.80;97.30
24426;DHT22;12611;44.446;26.000;2022-12-17T04:34:15;8.80;97.30
24426;DHT22;12611;44.446;26.000;2022-12-17T04:37:00;8.80;97.30
24426;DHT22;12611;44.446;26.000;2022-12-17T04:39:46;8.80;97.10
24426;DHT22;12611;44.446;26.000;2022-12-17T04:42:33;8.70;97.10
24426;DHT22;12611;44.446;26.000;2022-12-17T04:45:18;8.70;97.10
24426;DHT22;12611;44.446;26.000;2022-12-17T04:48:06;8.70;97.10
24426;DHT22;12611;44.446;26.000;2022-12-17T04:50:52;8.60;97.00
24426;DHT22;12611;44.446;26.000;2022-12-17T04:53:37;8.60;97.00
24426;DHT22;12611;44.446;26.000;2022-12-17T04:56:23;8.60;97.00
24426;DHT22;12611;44.446;26.000;2022-12-17T04:59:10;8.60;97.00
24426;DHT22;12611;44.446;26.000;2022-12-17T05:01:55;8.60;97.00
24426;DHT22;12611;44.446;26.000;2022-12-17T05:04:41;8.60;96.90
24426;DHT22;12611;44.446;26.000;2022-12-17T05:07:26;8.60;96.90
24426;DHT22;12611;44.446;26.000;2022-12-17T05:10:12;8.50;96.90
24426;DHT22;12611;44.446;26.000;2022-12-17T05:12:59;8.50;97.00
24426;DHT22;12611;44.446;26.000;2022-12-17T05:15:46;8.50;97.00
24426;DHT22;12611;44.446;26.000;2022-12-17T05:18:32;8.60;97.00
24426;DHT22;12611;44.446;26.000;2022-12-17T05:21:27;8.50;96.90
24426;DHT22;12611;44.446;26.000;2022-12-17T05:24:13;8.60;96.90
24426;DHT22;12611;44.446;26.000;2022-12-17T05:26:58;8.60;97.00
24426;DHT22;12611;44.446;26.000;2022-12-17T05:29:43;8.60;96.90
24426;DHT22;12611;44.446;26.000;2022-12-17T05:32:30;8.60;96.80
24426;DHT22;12611;44.446;26.000;2022-12-17T05:35:31;8.60;96.80
24426;DHT22;12611;44.446;26.000;2022-12-17T05:38:17;8.60;96.80
24426;DHT22;12611;44.446;26.000;2022-12-17T05:41:03;8.60;96.80
24426;DHT22;12611;44.446;26.000;2022-12-17T05:43:49;8.60;96.80
24426;DHT22;12611;44.446;26.000;2022-12-17T05:46:34;8.60;96.80
24426;DHT22;12611;44.446;26.000;2022-12-17T05:49:21;8.60;96.70
24426;DHT22;12611;44.446;26.000;2022-12-17T05:52:07;8.60;96.70
24426;DHT22;12611;44.446;26.000;2022-12-17T05:54:52;8.70;96.80
24426;DHT22;12611;44.446;26.000;2022-12-17T05:57:38;8.70;96.70
24426;DHT22;12611;44.446;26.000;2022-12-17T06:00:24;8.70;96.70
24426;DHT22;12611;44.446;26.000;2022-12-17T06:03:09;8.70;96.70
24426;DHT22;12611;44.446;26.000;2022-12-17T06:05:57;8.80;96.70
24426;DHT22;12611;44.446;26.000;2022-12-17T06:08:42;8.80;96.70
24426;DHT22;12611;44.446;26.000;2022-12-17T06:11:30;8.80;96.60
24426;DHT22;12611;44.446;26.000;2022-12-17T06:14:16;8.80;96.60
24426;DHT22;12611;44.446;26.000;2022-12-17T06:17:02;8.80;96.50
24426;DHT22;12611;44.446;26.000;2022-12-17T06:19:47;8.80;96.40
24426;DHT22;12611;44.446;26.000;2022-12-17T06:22:34;8.80;96.40
24426;DHT22;12611;44.446;26.000;2022-12-17T06:25:20;8.80;96.40
24426;DHT22;12611;44.446;26.000;2022-12-17T06:28:06;8.80;96.40
24426;DHT22;12611;44.446;26.000;2022-12-17T06:30:52;8.80;96.30
24426;DHT22;12611;44.446;26.000;2022-12-17T06:33:39;8.80;96.50
24426;DHT22;12611;44.446;26.000;2022-12-17T06:36:25;8.90;96.30
24426;DHT22;12611;44.446;26.000;2022-12-17T06:39:12;8.90;96.40
24426;DHT22;12611;44.446;26.000;2022-12-17T06:41:58;8.90;96.40
24426;DHT22;12611;44.446;26.000;2022-12-17T06:44:49;8.90;96.40
24426;DHT22;12611;44.446;26.000;2022-12-17T06:47:34;8.90;96.40
24426;DHT22;12611;44.446;26.000;2022-12-17T06:50:20;9.00;96.40
24426;DHT22;12611;44.446;26.000;2022-12-17T06:53:06;9.10;96.50
24426;DHT22;12611;44.446;26.000;2022-12-17T06:55:56;9.10;96.90
24426;DHT22;12611;44.446;26.000;2022-12-17T06:58:42;9.20;96.50
24426;DHT22;12611;44.446;26.000;2022-12-17T07:01:28;9.20;96.60
24426;DHT22;12611;44.446;26.000;2022-12-17T07:04:14;9.30;96.60
24426;DHT22;12611;44.446;26.000;2022-12-17T07:07:11;9.30;96.60
24426;DHT22;12611;44.446;26.000;2022-12-17T07:09:57;9.40;96.60
24426;DHT22;12611;44.446;26.000;2022-12-17T07:12:44;9.40;96.60
24426;DHT22;12611;44.446;26.000;2022-12-17T07:15:30;9.50;96.60
24426;DHT22;12611;44.446;26.000;2022-12-17T07:18:23;9.60;96.70
24426;DHT22;12611;44.446;26.000;2022-12-17T07:21:10;9.70;96.70
24426;DHT22;12611;44.446;26.000;2022-12-17T07:23:55;9.80;96.80
24426;DHT22;12611;44.446;26.000;2022-12-17T07:26:41;9.90;96.80
24426;DHT22;12611;44.446;26.000;2022-12-17T07:29:28;10.00;96.80
24426;DHT22;12611;44.446;26.000;2022-12-17T07:32:13;10.10;96.80
24426;DHT22;12611;44.446;26.000;2022-12-17T07:34:58;10.20;96.80
24426;DHT22;12611;44.446;26.000;2022-12-17T07:37:44;10.30;96.80
24426;DHT22;12611;44.446;26.000;2022-12-17T07:40:30;10.40;96.80
24426;DHT22;12611;44.446;26.000;2022-12-17T07:43:16;10.50;96.70
24426;DHT22;12611;44.446;26.000;2022-12-17T07:46:04;10.50;96.40
24426;DHT22;12611;44.446;26.000;2022-12-17T07:48:49;10.50;96.40
24426;DHT22;12611;44.446;26.000;2022-12-17T07:51:36;10.60;96.30
24426;DHT22;12611;44.446;26.000;2022-12-17T07:54:21;10.60;96.40
24426;DHT22;12611;44.446;26.000;2022-12-17T07:57:07;10.60;96.70
24426;DHT22;12611;44.446;26.000;2022-12-17T07:59:53;10.70;96.50
24426;DHT22;12611;44.446;26.000;2022-12-17T08:02:40;10.80;96.60
24426;DHT22;12611;44.446;26.000;2022-12-17T08:05:26;10.90;96.90
24426;DHT22;12611;44.446;26.000;2022-12-17T08:08:12;10.90;97.20
24426;DHT22;12611;44.446;26.000;2022-12-17T08:10:58;11.00;97.60
24426;DHT22;12611;44.446;26.000;2022-12-17T08:13:44;11.10;97.90
24426;DHT22;12611;44.446;26.000;2022-12-17T08:16:30;11.20;98.30
24426;DHT22;12611;44.446;26.000;2022-12-17T08:19:17;11.30;98.80
24426;DHT22;12611;44.446;26.000;2022-12-17T08:22:03;11.50;99.10
24426;DHT22;12611;44.446;26.000;2022-12-17T08:24:49;11.70;99.30
24426;DHT22;12611;44.446;26.000;2022-12-17T08:27:34;11.70;99.60
24426;DHT22;12611;44.446;26.000;2022-12-17T08:30:32;12.00;99.80
24426;DHT22;12611;44.446;26.000;2022-12-17T08:33:18;12.20;99.90
24426;DHT22;12611;44.446;26.000;2022-12-17T08:36:05;12.30;99.90
24426;DHT22;12611;44.446;26.000;2022-12-17T08:38:56;12.50;99.90
24426;DHT22;12611;44.446;26.000;2022-12-17T08:41:42;12.70;99.90
24426;DHT22;12611;44.446;26.000;2022-12-17T08:44:36;12.80;99.90
24426;DHT22;12611;44.446;26.000;2022-12-17T08:47:23;13.00;99.90
24426;DHT22;12611;44.446;26.000;2022-12-17T08:50:09;13.20;99.90
24426;DHT22;12611;44.446;26.000;2022-12-17T08:52:58;13.30;99.90
24426;DHT22;12611;44.446;26.000;2022-12-17T08:55:45;13.50;99.90
24426;DHT22;12611;44.446;26.000;2022-12-17T08:58:31;13.70;99.90
24426;DHT22;12611;44.446;26.000;2022-12-17T09:01:24;13.90;99.70
24426;DHT22;12611;44.446;26.000;2022-12-17T09:04:11;14.00;99.30
24426;DHT22;12611;44.446;26.000;2022-12-17T09:06:56;14.20;99.10
24426;DHT22;12611;44.446;26.000;2022-12-17T09:09:43;14.30;98.70
24426;DHT22;12611;44.446;26.000;2022-12-17T09:12:29;14.40;98.40
24426;DHT22;12611;44.446;26.000;2022-12-17T09:15:15;14.50;98.10
24426;DHT22;12611;44.446;26.000;2022-12-17T09:18:00;14.60;97.90
24426;DHT22;12611;44.446;26.000;2022-12-17T09:20:51;14.70;97.90
24426;DHT22;12611;44.446;26.000;2022-12-17T09:23:36;14.80;97.10
24426;DHT22;12611;44.446;26.000;2022-12-17T09:26:24;14.90;97.00
24426;DHT22;12611;44.446;26.000;2022-12-17T09:29:10;15.10;97.10
24426;DHT22;12611;44.446;26.000;2022-12-17T09:31:55;15.10;96.60
24426;DHT22;12611;44.446;26.000;2022-12-17T09:34:42;15.20;96.50
24426;DHT22;12611;44.446;26.000;2022-12-17T09:37:27;15.20;96.40
24426;DHT22;12611;44.446;26.000;2022-12-17T09:40:15;15.30;96.50
24426;DHT22;12611;44.446;26.000;2022-12-17T09:43:07;15.30;95.90
24426;DHT22;12611;44.446;26.000;2022-12-17T09:46:04;15.40;96.00
24426;DHT22;12611;44.446;26.000;2022-12-17T09:48:57;15.50;96.10
24426;DHT22;12611;44.446;26.000;2022-12-17T09:51:44;15.50;96.00
24426;DHT22;12611;44.446;26.000;2022-12-17T09:54:33;15.60;96.10
24426;DHT22;12611;44.446;26.000;2022-12-17T09:57:29;15.70;96.10
24426;DHT22;12611;44.446;26.000;2022-12-17T10:00:19;15.80;96.10
24426;DHT22;12611;44.446;26.000;2022-12-17T10:03:10;15.90;96.10
24426;DHT22;12611;44.446;26.000;2022-12-17T10:06:01;15.90;96.10
24426;DHT22;12611;44.446;26.000;2022-12-17T10:08:55;16.00;96.10
24426;DHT22;12611;44.446;26.000;2022-12-17T10:11:49;16.00;96.10
24426;DHT22;12611;44.446;26.000;2022-12-17T10:14:35;16.10;96.00
24426;DHT22;12611;44.446;26.000;2022-12-17T10:17:25;16.10;96.00
24426;DHT22;12611;44.446;26.000;2022-12-17T10:20:17;16.10;95.90
24426;DHT22;12611;44.446;26.000;2022-12-17T10:23:06;16.10;95.80
24426;DHT22;12611;44.446;26.000;2022-12-17T10:25:53;16.10;95.70
24426;DHT22;12611;44.446;26.000;2022-12-17T10:28:39;16.20;95.70
24426;DHT22;12611;44.446;26.000;2022-12-17T10:31:27;16.20;95.70
24426;DHT22;12611;44.446;26.000;2022-12-17T10:34:16;16.30;95.70
24426;DHT22;12611;44.446;26.000;2022-12-17T10:37:13;16.40;95.50
24426;DHT22;12611;44.446;26.000;2022-12-17T10:40:14;16.40;95.10
24426;DHT22;12611;44.446;26.000;2022-12-17T10:43:01;16.40;95.20
24426;DHT22;12611;44.446;26.000;2022-12-17T10:45:52;16.50;95.10
24426;DHT22;12611;44.446;26.000;2022-12-17T10:48:39;16.50;94.90
24426;DHT22;12611;44.446;26.000;2022-12-17T10:51:29;16.60;94.90
24426;DHT22;12611;44.446;26.000;2022-12-17T10:54:22;16.60;94.60
24426;DHT22;12611;44.446;26.000;2022-12-17T10:57:23;16.60;94.40
24426;DHT22;12611;44.446;26.000;2022-12-17T11:00:23;16.50;94.50
24426;DHT22;12611;44.446;26.000;2022-12-17T11:03:31;16.50;94.50
24426;DHT22;12611;44.446;26.000;2022-12-17T11:06:22;16.40;94.30
24426;DHT22;12611;44.446;26.000;2022-12-17T11:09:18;16.40;94.50
24426;DHT22;12611;44.446;26.000;2022-12-17T11:12:07;16.40;94.60
24426;DHT22;12611;44.446;26.000;2022-12-17T11:14:59;16.30;94.60
24426;DHT22;12611;44.446;26.000;2022-12-17T11:17:51;16.40;94.80
24426;DHT22;12611;44.446;26.000;2022-12-17T11:20:45;16.30;95.10
24426;DHT22;12611;44.446;26.000;2022-12-17T11:23:33;16.30;95.10
24426;DHT22;12611;44.446;26.000;2022-12-17T11:26:24;16.40;95.20
24426;DHT22;12611;44.446;26.000;2022-12-17T11:29:12;16.40;95.40
24426;DHT22;12611;44.446;26.000;2022-12-17T11:32:08;16.50;95.50
24426;DHT22;12611;44.446;26.000;2022-12-17T11:35:04;16.50;95.60
24426;DHT22;12611;44.446;26.000;2022-12-17T11:37:59;16.50;95.80
24426;DHT22;12611;44.446;26.000;2022-12-17T11:40:53;16.60;95.80
24426;DHT22;12611;44.446;26.000;2022-12-17T11:43:44;16.50;95.80
24426;DHT22;12611;44.446;26.000;2022-12-17T11:46:37;16.60;95.80
24426;DHT22;12611;44.446;26.000;2022-12-17T11:49:41;16.60;95.70
24426;DHT22;12611;44.446;26.000;2022-12-17T11:52:34;16.60;95.80
24426;DHT22;12611;44.446;26.000;2022-12-17T11:55:30;16.60;95.80
24426;DHT22;12611;44.446;26.000;2022-12-17T11:58:25;16.60;95.90
24426;DHT22;12611;44.446;26.000;2022-12-17T12:01:18;16.60;95.90
24426;DHT22;12611;44.446;26.000;2022-12-17T12:04:13;16.60;95.90
24426;DHT22;12611;44.446;26.000;2022-12-17T12:07:06;16.70;95.90
24426;DHT22;12611;44.446;26.000;2022-12-17T12:09:58;16.70;95.90
24426;DHT22;12611;44.446;26.000;2022-12-17T12:12:54;16.70;95.90
24426;DHT22;12611;44.446;26.000;2022-12-17T12:15:47;16.70;95.90
24426;DHT22;12611;44.446;26.000;2022-12-17T12:18:48;16.80;95.90
24426;DHT22;12611;44.446;26.000;2022-12-17T12:21:40;16.70;95.80
24426;DHT22;12611;44.446;26.000;2022-12-17T12:25:06;16.70;95.80
24426;DHT22;12611;44.446;26.000;2022-12-17T12:28:06;16.60;95.90
24426;DHT22;12611;44.446;26.000;2022-12-17T12:31:00;16.50;95.90
24426;DHT22;12611;44.446;26.000;2022-12-17T12:33:54;16.40;96.10
24426;DHT22;12611;44.446;26.000;2022-12-17T12:36:42;16.40;95.20
24426;DHT22;12611;44.446;26.000;2022-12-17T12:39:34;16.20;94.70
24426;DHT22;12611;44.446;26.000;2022-12-17T12:42:26;16.10;94.60
24426;DHT22;12611;44.446;26.000;2022-12-17T12:45:30;16.00;94.40
24426;DHT22;12611;44.446;26.000;2022-12-17T12:48:26;15.80;93.70
24426;DHT22;12611;44.446;26.000;2022-12-17T12:51:17;15.60;93.10
24426;DHT22;12611;44.446;26.000;2022-12-17T12:54:24;15.40;93.30
24426;DHT22;12611;44.446;26.000;2022-12-17T12:57:29;15.20;93.30
24426;DHT22;12611;44.446;26.000;2022-12-17T13:00:23;15.00;93.30
24426;DHT22;12611;44.446;26.000;2022-12-17T13:03:18;14.90;93.50
24426;DHT22;12611;44.446;26.000;2022-12-17T13:06:06;14.70;93.60
24426;DHT22;12611;44.446;26.000;2022-12-17T13:08:36;14.50;93.80
24426;DHT22;12611;44.446;26.000;2022-12-17T13:11:20;14.40;94.00
24426;DHT22;12611;44.446;26.000;2022-12-17T13:13:53;14.30;94.10
24426;DHT22;12611;44.446;26.000;2022-12-17T13:16:30;14.30;94.40
24426;DHT22;12611;44.446;26.000;2022-12-17T13:19:01;14.20;94.50
24426;DHT22;12611;44.446;26.000;2022-12-17T13:21:30;14.20;94.60
24426;DHT22;12611;44.446;26.000;2022-12-17T13:24:11;14.10;94.70
24426;DHT22;12611;44.446;26.000;2022-12-17T13:26:43;14.00;94.90
24426;DHT22;12611;44.446;26.000;2022-12-17T13:29:20;14.00;95.00
24426;DHT22;12611;44.446;26.000;2022-12-17T13:32:04;14.00;95.10
24426;DHT22;12611;44.446;26.000;2022-12-17T13:34:55;13.90;95.30
24426;DHT22;12611;44.446;26.000;2022-12-17T13:37:41;13.80;95.60
24426;DHT22;12611;44.446;26.000;2022-12-17T13:40:24;13.90;95.70
24426;DHT22;12611;44.446;26.000;2022-12-17T13:42:54;13.80;95.80
24426;DHT22;12611;44.446;26.000;2022-12-17T13:45:24;13.70;96.00
24426;DHT22;12611;44.446;26.000;2022-12-17T13:47:54;13.70;96.10
24426;DHT22;12611;44.446;26.000;2022-12-17T13:50:24;13.60;96.10
24426;DHT22;12611;44.446;26.000;2022-12-17T13:53:08;13.60;96.30
24426;DHT22;12611;44.446;26.000;2022-12-17T13:55:38;13.60;96.20
24426;DHT22;12611;44.446;26.000;2022-12-17T13:58:23;13.60;96.20
24426;DHT22;12611;44.446;26.000;2022-12-17T14:01:03;13.60;96.30
24426;DHT22;12611;44.446;26.000;2022-12-17T14:03:32;13.50;96.40
24426;DHT22;12611;44.446;26.000;2022-12-17T14:06:22;13.50;96.30
24426;DHT22;12611;44.446;26.000;2022-12-17T14:08:53;13.50;96.40
24426;DHT22;12611;44.446;26.000;2022-12-17T14:11:26;13.50;96.40
24426;DHT22;12611;44.446;26.000;2022-12-17T14:14:18;13.50;96.40
24426;DHT22;12611;44.446;26.000;2022-12-17T14:16:47;13.40;96.40
24426;DHT22;12611;44.446;26.000;2022-12-17T14:19:20;13.40;96.60
24426;DHT22;12611;44.446;26.000;2022-12-17T14:21:49;13.40;96.60
24426;DHT22;12611;44.446;26.000;2022-12-17T14:24:19;13.40;96.60
24426;DHT22;12611;44.446;26.000;2022-12-17T14:26:56;13.30;96.60
24426;DHT22;12611;44.446;26.000;2022-12-17T14:29:28;13.30;96.60
24426;DHT22;12611;44.446;26.000;2022-12-17T14:31:58;13.20;96.60
24426;DHT22;12611;44.446;26.000;2022-12-17T14:34:27;13.20;96.60
24426;DHT22;12611;44.446;26.000;2022-12-17T14:36:58;13.20;96.70
24426;DHT22;12611;44.446;26.000;2022-12-17T14:39:28;13.10;96.80
24426;DHT22;12611;44.446;26.000;2022-12-17T14:42:07;13.10;96.70
24426;DHT22;12611;44.446;26.000;2022-12-17T14:45:00;13.00;96.90
24426;DHT22;12611;44.446;26.000;2022-12-17T14:47:30;12.90;97.10
24426;DHT22;12611;44.446;26.000;2022-12-17T14:50:02;12.80;97.10
24426;DHT22;12611;44.446;26.000;2022-12-17T14:52:41;12.80;97.30
24426;DHT22;12611;44.446;26.000;2022-12-17T14:55:32;12.70;97.40
24426;DHT22;12611;44.446;26.000;2022-12-17T14:58:14;12.60;97.60
24426;DHT22;12611;44.446;26.000;2022-12-17T15:00:45;12.50;97.70
24426;DHT22;12611;44.446;26.000;2022-12-17T15:03:18;12.50;97.80
24426;DHT22;12611;44.446;26.000;2022-12-17T15:05:50;12.50;97.70
24426;DHT22;12611;44.446;26.000;2022-12-17T15:08:20;12.40;97.80
24426;DHT22;12611;44.446;26.000;2022-12-17T15:10:49;12.40;98.10
24426;DHT22;12611;44.446;26.000;2022-12-17T15:13:18;12.30;98.30
24426;DHT22;12611;44.446;26.000;2022-12-17T15:15:47;12.20;98.50
24426;DHT22;12611;44.446;26.000;2022-12-17T15:18:15;12.20;98.90
24426;DHT22;12611;44.446;26.000;2022-12-17T15:20:45;12.10;98.80
24426;DHT22;12611;44.446;26.000;2022-12-17T15:23:15;12.20;98.60
24426;DHT22;12611;44.446;26.000;2022-12-17T15:25:45;12.10;98.90
24426;DHT22;12611;44.446;26.000;2022-12-17T15:28:15;12.00;99.10
24426;DHT22;12611;44.446;26.000;2022-12-17T15:30:45;12.00;99.10
24426;DHT22;12611;44.446;26.000;2022-12-17T15:33:16;12.00;99.30
24426;DHT22;12611;44.446;26.000;2022-12-17T15:35:44;12.00;99.40
24426;DHT22;12611;44.446;26.000;2022-12-17T15:38:12;12.00;99.40
24426;DHT22;12611;44.446;26.000;2022-12-17T15:40:40;11.90;99.60
24426;DHT22;12611;44.446;26.000;2022-12-17T15:43:10;12.00;99.50
24426;DHT22;12611;44.446;26.000;2022-12-17T15:45:38;12.00;99.60
24426;DHT22;12611;44.446;26.000;2022-12-17T15:48:08;12.00;99.60
24426;DHT22;12611;44.446;26.000;2022-12-17T15:50:37;12.00;99.60
24426;DHT22;12611;44.446;26.000;2022-12-17T15:53:05;12.00;99.60
24426;DHT22;12611;44.446;26.000;2022-12-17T15:55:35;12.00;99.90
24426;DHT22;12611;44.446;26.000;2022-12-17T15:58:04;12.00;99.80
24426;DHT22;12611;44.446;26.000;2022-12-17T16:00:33;12.00;99.80
24426;DHT22;12611;44.446;26.000;2022-12-17T16:03:02;12.00;99.80
24426;DHT22;12611;44.446;26.000;2022-12-17T16:05:32;12.00;99.90
24426;DHT22;12611;44.446;26.000;2022-12-17T16:08:00;12.00;99.90
24426;DHT22;12611;44.446;26.000;2022-12-17T16:10:29;12.00;99.90
24426;DHT22;12611;44.446;26.000;2022-12-17T16:12:58;12.00;99.90
24426;DHT22;12611;44.446;26.000;2022-12-17T16:15:26;12.00;99.90
24426;DHT22;12611;44.446;26.000;2022-12-17T16:17:56;12.00;99.90
24426;DHT22;12611;44.446;26.000;2022-12-17T16:20:26;12.00;99.90
24426;DHT22;12611;44.446;26.000;2022-12-17T16:22:56;12.00;99.90
24426;DHT22;12611;44.446;26.000;2022-12-17T16:25:24;12.00;99.90
24426;DHT22;12611;44.446;26.000;2022-12-17T16:27:52;11.90;99.90
24426;DHT22;12611;44.446;26.000;2022-12-17T16:30:21;12.00;99.90
24426;DHT22;12611;44.446;26.000;2022-12-17T16:32:49;12.00;99.90
24426;DHT22;12611;44.446;26.000;2022-12-17T16:35:17;12.00;99.90
24426;DHT22;12611;44.446;26.000;2022-12-17T16:37:46;12.00;99.90
24426;DHT22;12611;44.446;26.000;2022-12-17T16:40:16;12.00;99.90
24426;DHT22;12611;44.446;26.000;2022-12-17T16:42:44;12.00;99.90
24426;DHT22;12611;44.446;26.000;2022-12-17T16:45:12;12.00;99.90
24426;DHT22;12611;44.446;26.000;2022-12-17T16:47:41;12.00;99.90
24426;DHT22;12611;44.446;26.000;2022-12-17T16:50:09;12.10;99.90
24426;DHT22;12611;44.446;26.000;2022-12-17T16:52:37;12.10;99.90
24426;DHT22;12611;44.446;26.000;2022-12-17T16:55:06;12.20;99.90
24426;DHT22;12611;44.446;26.000;2022-12-17T16:57:36;12.20;99.90
24426;DHT22;12611;44.446;26.000;2022-12-17T17:00:05;12.20;99.90
24426;DHT22;12611;44.446;26.000;2022-12-17T17:02:33;12.20;99.90
24426;DHT22;12611;44.446;26.000;2022-12-17T17:05:02;12.20;99.90
24426;DHT22;12611;44.446;26.000;2022-12-17T17:07:31;12.20;99.90